createdAt,value
2018-03-18T00:01:55.265Z,99.90
2018-03-18T00:04:23.051Z,99.90
2018-03-18T00:06:50.799Z,99.90
2018-03-18T00:09:18.523Z,99.90
2018-03-18T00:11:47.020Z,99.90
2018-03-18T00:14:14.742Z,99.90
2018-03-18T00:16:42.498Z,99.90
2018-03-18T00:19:10.241Z,99.90
2018-03-18T00:21:37.962Z,99.90
2018-03-18T00:24:06.449Z,99.90
2018-03-18T00:26:34.171Z,99.90
2018-03-18T00:29:01.890Z,99.90
2018-03-18T00:31:29.627Z,99.90
2018-03-18T00:33:57.350Z,99.90
2018-03-18T00:36:25.070Z,99.90
2018-03-18T00:38:52.789Z,99.90
2018-03-18T00:41:20.596Z,99.90
2018-03-18T00:43:48.371Z,99.90
2018-03-18T00:46:16.106Z,99.90
2018-03-18T00:48:44.596Z,99.90
2018-03-18T00:51:12.472Z,99.90
2018-03-18T00:53:40.950Z,99.90
2018-03-18T00:56:08.674Z,99.90
2018-03-18T00:58:36.399Z,99.90
2018-03-18T01:01:04.138Z,99.90
2018-03-18T01:03:31.873Z,99.90
2018-03-18T01:06:00.381Z,99.90
2018-03-18T01:08:28.111Z,99.90
2018-03-18T01:10:55.854Z,99.90
2018-03-18T01:13:23.586Z,99.90
2018-03-18T01:15:51.329Z,99.90
2018-03-18T01:18:19.082Z,99.90
2018-03-18T01:20:47.582Z,99.90
2018-03-18T01:23:15.329Z,99.90
2018-03-18T01:25:43.840Z,99.90
2018-03-18T01:28:11.565Z,99.90
2018-03-18T01:30:40.050Z,99.90
2018-03-18T01:33:08.554Z,99.90
2018-03-18T01:35:36.282Z,99.90
2018-03-18T01:38:04.002Z,99.90
2018-03-18T01:40:31.745Z,99.90
2018-03-18T01:42:59.462Z,99.90
2018-03-18T01:45:27.186Z,99.90
2018-03-18T01:47:54.914Z,99.90
2018-03-18T01:50:23.405Z,99.90
2018-03-18T01:53:03.000Z,99.90
2018-03-18T01:55:30.806Z,99.90
2018-03-18T01:57:58.539Z,99.90
2018-03-18T02:00:26.267Z,99.90
2018-03-18T02:02:54.070Z,99.90
2018-03-18T02:05:21.818Z,99.90
2018-03-18T02:07:49.550Z,99.90
2018-03-18T02:10:17.322Z,99.90
2018-03-18T02:12:45.058Z,99.90
2018-03-18T02:15:12.791Z,99.90
2018-03-18T02:17:41.285Z,99.90
2018-03-18T02:20:09.816Z,99.90
2018-03-18T02:22:37.597Z,99.90
2018-03-18T02:25:05.330Z,99.90
2018-03-18T02:27:33.078Z,99.90
2018-03-18T02:30:00.805Z,99.90
2018-03-18T02:32:29.318Z,99.90
2018-03-18T02:34:57.046Z,99.90
2018-03-18T02:37:24.777Z,99.90
2018-03-18T02:39:52.516Z,99.90
2018-03-18T02:42:20.258Z,99.90
2018-03-18T02:44:48.046Z,99.90
2018-03-18T02:47:15.779Z,99.90
2018-03-18T02:49:44.299Z,99.90
2018-03-18T02:52:12.839Z,99.90
2018-03-18T02:54:41.381Z,99.90
2018-03-18T02:57:09.123Z,99.90
2018-03-18T02:59:36.855Z,99.90
2018-03-18T03:02:05.390Z,99.90
2018-03-18T03:04:33.119Z,99.90
2018-03-18T03:07:00.863Z,99.90
2018-03-18T03:09:29.350Z,99.90
2018-03-18T03:11:57.906Z,99.90
2018-03-18T03:14:25.630Z,99.90
2018-03-18T03:16:53.367Z,99.90
2018-03-18T03:19:21.106Z,99.90
2018-03-18T03:21:49.612Z,99.90
2018-03-18T03:24:17.406Z,99.90
2018-03-18T03:26:45.142Z,99.90
2018-03-18T03:29:12.912Z,99.90
2018-03-18T03:31:40.638Z,99.90
2018-03-18T03:34:09.200Z,99.90
2018-03-18T03:36:36.966Z,99.90
2018-03-18T03:39:04.801Z,99.90
2018-03-18T03:41:32.572Z,99.90
2018-03-18T03:44:00.305Z,99.90
2018-03-18T03:46:28.038Z,99.90
2018-03-18T03:48:55.816Z,99.80
2018-03-18T03:51:24.324Z,99.90
2018-03-18T03:53:52.086Z,99.90
2018-03-18T03:56:19.805Z,99.90
2018-03-18T03:58:47.554Z,99.80
2018-03-18T04:01:15.334Z,99.90
2018-03-18T04:03:43.054Z,99.90
2018-03-18T04:06:10.787Z,99.90
2018-03-18T04:08:39.281Z,99.70
2018-03-18T04:11:07.018Z,99.70
2018-03-18T04:13:35.530Z,99.70
2018-03-18T04:16:03.310Z,99.70
2018-03-18T04:18:31.062Z,99.50
2018-03-18T04:20:58.792Z,99.40
2018-03-18T04:23:27.321Z,99.50
2018-03-18T04:25:55.063Z,99.50
2018-03-18T04:28:22.830Z,99.30
2018-03-18T04:30:50.573Z,99.30
2018-03-18T04:33:19.087Z,99.00
2018-03-18T04:35:46.811Z,99.00
2018-03-18T04:38:15.368Z,98.60
2018-03-18T04:40:43.102Z,98.60
2018-03-18T04:43:10.831Z,98.30
2018-03-18T04:45:39.321Z,98.30
2018-03-18T04:48:07.041Z,98.30
2018-03-18T04:50:34.779Z,98.40
2018-03-18T04:53:02.502Z,98.40
2018-03-18T04:55:30.262Z,98.40
2018-03-18T04:57:58.791Z,97.90
2018-03-18T05:00:26.535Z,97.80
2018-03-18T05:02:54.328Z,97.50
2018-03-18T05:05:23.170Z,96.50
2018-03-18T05:07:50.894Z,95.80
2018-03-18T05:10:18.618Z,95.70
2018-03-18T05:12:46.389Z,95.50
2018-03-18T05:15:14.134Z,95.50
2018-03-18T05:17:41.858Z,95.50
2018-03-18T05:20:10.352Z,95.30
2018-03-18T05:22:38.838Z,95.10
2018-03-18T05:25:07.330Z,95.20
2018-03-18T05:27:35.062Z,95.20
2018-03-18T05:30:02.796Z,95.20
2018-03-18T05:32:30.590Z,95.30
2018-03-18T05:34:59.094Z,95.20
2018-03-18T05:37:26.814Z,95.20
2018-03-18T05:39:54.683Z,94.90
2018-03-18T05:42:22.412Z,94.50
2018-03-18T05:44:50.140Z,94.80
2018-03-18T05:47:18.658Z,94.40
2018-03-18T05:49:46.384Z,94.40
2018-03-18T05:52:14.877Z,94.30
2018-03-18T05:54:42.686Z,94.30
2018-03-18T05:57:10.464Z,94.50
2018-03-18T05:59:38.193Z,94.50
2018-03-18T06:02:05.923Z,94.60
2018-03-18T06:04:34.422Z,94.90
2018-03-18T06:07:02.146Z,94.90
2018-03-18T06:09:29.870Z,94.70
2018-03-18T06:11:57.594Z,94.50
2018-03-18T06:14:26.104Z,94.10
2018-03-18T06:16:54.610Z,94.20
2018-03-18T06:19:22.339Z,94.10
2018-03-18T06:21:50.062Z,94.20
2018-03-18T06:24:17.791Z,94.40
2018-03-18T06:26:45.522Z,94.20
2018-03-18T06:29:13.233Z,93.90
2018-03-18T06:31:40.967Z,93.50
2018-03-18T06:34:08.692Z,93.50
2018-03-18T06:36:37.173Z,93.20
2018-03-18T06:39:05.686Z,93.00
2018-03-18T06:41:33.412Z,92.90
2018-03-18T06:44:01.914Z,92.80
2018-03-18T06:46:29.638Z,92.70
2018-03-18T06:48:57.428Z,92.90
2018-03-18T06:51:25.920Z,92.70
2018-03-18T06:53:53.650Z,92.70
2018-03-18T06:56:22.178Z,92.80
2018-03-18T06:58:49.902Z,92.80
2018-03-18T07:01:17.626Z,92.40
2018-03-18T07:03:45.375Z,92.30
2018-03-18T07:06:13.113Z,92.20
2018-03-18T07:08:40.838Z,92.60
2018-03-18T07:11:08.574Z,92.40
2018-03-18T07:13:36.338Z,92.60
2018-03-18T07:16:04.113Z,92.60
2018-03-18T07:18:31.894Z,92.70
2018-03-18T07:20:59.638Z,92.90
2018-03-18T07:23:27.377Z,92.90
2018-03-18T07:25:55.190Z,92.60
2018-03-18T07:28:22.926Z,92.70
2018-03-18T07:30:50.686Z,92.80
2018-03-18T07:33:18.411Z,92.60
2018-03-18T07:35:46.161Z,92.40
2018-03-18T07:38:14.675Z,92.90
2018-03-18T07:40:42.393Z,92.90
2018-03-18T07:43:10.142Z,92.60
2018-03-18T07:45:37.882Z,92.50
2018-03-18T07:48:05.682Z,92.60
2018-03-18T07:50:33.476Z,92.70
2018-03-18T07:53:01.220Z,92.40
2018-03-18T07:55:29.753Z,92.70
2018-03-18T07:57:57.510Z,92.70
2018-03-18T08:00:25.285Z,92.20
2018-03-18T08:02:53.014Z,92.30
2018-03-18T08:05:20.782Z,92.40
2018-03-18T08:07:48.612Z,92.10
2018-03-18T08:10:16.349Z,92.20
2018-03-18T08:12:44.078Z,92.10
2018-03-18T08:15:11.838Z,91.70
2018-03-18T08:17:39.567Z,91.20
2018-03-18T08:20:07.311Z,90.90
2018-03-18T08:22:35.037Z,90.10
2018-03-18T08:25:02.805Z,90.20
2018-03-18T08:27:30.535Z,90.40
2018-03-18T08:29:59.061Z,90.70
2018-03-18T08:32:26.890Z,90.70
2018-03-18T08:34:55.385Z,90.90
2018-03-18T08:37:23.110Z,90.90
2018-03-18T08:39:50.839Z,90.80
2018-03-18T08:42:28.453Z,90.90
2018-03-18T08:44:56.213Z,89.90
2018-03-18T08:47:23.959Z,87.30
2018-03-18T08:49:51.758Z,86.60
2018-03-18T08:52:19.534Z,86.20
2018-03-18T08:54:48.045Z,84.30
2018-03-18T08:57:15.788Z,84.30
2018-03-18T08:59:44.341Z,84.80
2018-03-18T09:02:12.082Z,84.80
2018-03-18T09:04:39.815Z,85.10
2018-03-18T09:07:07.562Z,83.90
2018-03-18T09:09:36.081Z,81.30
2018-03-18T09:12:03.821Z,81.30
2018-03-18T09:14:31.559Z,82.20
2018-03-18T09:17:00.070Z,81.60
2018-03-18T09:19:28.576Z,82.10
2018-03-18T09:21:56.310Z,82.00
2018-03-18T09:24:24.034Z,81.60
2018-03-18T09:26:51.759Z,81.20
2018-03-18T09:29:19.473Z,79.50
2018-03-18T09:31:47.959Z,79.40
2018-03-18T09:34:16.505Z,78.10
2018-03-18T09:36:44.251Z,78.10
2018-03-18T09:39:12.083Z,76.50
2018-03-18T09:41:39.898Z,73.80
2018-03-18T09:44:08.741Z,76.50
2018-03-18T09:46:36.502Z,72.90
2018-03-18T09:49:04.279Z,73.30
2018-03-18T09:51:32.021Z,73.30
2018-03-18T09:53:59.774Z,72.00
2018-03-18T09:56:28.307Z,73.70
2018-03-18T09:58:56.066Z,73.10
2018-03-18T10:01:23.811Z,71.70
2018-03-18T10:03:51.540Z,73.00
2018-03-18T10:06:20.059Z,71.40
2018-03-18T10:08:47.798Z,71.30
2018-03-18T10:11:16.350Z,69.80
2018-03-18T10:13:44.099Z,69.70
2018-03-18T10:16:11.864Z,69.00
2018-03-18T10:18:39.591Z,69.50
2018-03-18T10:21:07.359Z,68.40
2018-03-18T10:23:35.079Z,68.20
2018-03-18T10:26:02.881Z,67.40
2018-03-18T10:28:30.609Z,67.20
2018-03-18T10:30:58.355Z,66.90
2018-03-18T10:33:26.178Z,66.70
2018-03-18T10:35:53.922Z,66.90
2018-03-18T10:38:22.434Z,66.50
2018-03-18T10:40:50.180Z,66.50
2018-03-18T10:43:17.951Z,66.50
2018-03-18T10:45:45.782Z,65.50
2018-03-18T10:48:13.542Z,65.80
2018-03-18T10:50:41.293Z,65.30
2018-03-18T10:53:09.033Z,64.30
2018-03-18T10:55:36.762Z,63.60
2018-03-18T10:58:04.582Z,63.40
2018-03-18T11:00:37.887Z,64.10
2018-03-18T11:03:05.710Z,64.40
2018-03-18T11:05:33.442Z,64.60
2018-03-18T11:08:01.984Z,65.50
2018-03-18T11:10:29.759Z,65.50
2018-03-18T11:12:57.493Z,65.30
2018-03-18T11:15:25.231Z,63.30
2018-03-18T11:17:52.979Z,63.60
2018-03-18T11:20:21.466Z,65.20
2018-03-18T11:22:49.391Z,65.10
2018-03-18T11:25:17.119Z,65.10
2018-03-18T11:27:44.842Z,64.70
2018-03-18T11:30:13.346Z,65.80
2018-03-18T11:32:41.079Z,65.80
2018-03-18T11:35:09.679Z,63.60
2018-03-18T11:37:38.250Z,63.90
2018-03-18T11:40:06.850Z,63.80
2018-03-18T11:42:34.627Z,63.80
2018-03-18T11:45:02.393Z,64.50
2018-03-18T11:47:30.156Z,65.30
2018-03-18T11:49:57.906Z,64.60
2018-03-18T11:52:25.721Z,64.60
2018-03-18T11:54:53.445Z,64.50
2018-03-18T11:57:21.183Z,63.70
2018-03-18T11:59:49.706Z,65.70
2018-03-18T12:02:17.442Z,65.70
2018-03-18T12:04:45.166Z,66.60
2018-03-18T12:07:12.922Z,68.30
2018-03-18T12:09:40.684Z,67.60
2018-03-18T12:12:08.457Z,68.70
2018-03-18T12:14:36.192Z,69.60
2018-03-18T12:17:03.969Z,72.20
2018-03-18T12:19:31.711Z,73.50
2018-03-18T12:21:59.483Z,72.70
2018-03-18T12:24:27.219Z,75.60
2018-03-18T12:26:55.053Z,77.70
2018-03-18T12:29:22.799Z,81.10
2018-03-18T12:31:50.594Z,88.80
2018-03-18T12:34:19.158Z,99.30
2018-03-18T12:36:46.894Z,99.30
2018-03-18T12:39:14.618Z,99.90
2018-03-18T12:41:42.415Z,99.90
2018-03-18T12:44:10.261Z,99.90
2018-03-18T12:46:38.096Z,99.90
2018-03-18T12:49:05.892Z,99.90
2018-03-18T12:51:33.723Z,99.90
2018-03-18T12:54:02.325Z,99.90
2018-03-18T12:56:30.292Z,99.90
2018-03-18T12:58:59.086Z,99.90
2018-03-18T13:01:27.291Z,99.90
2018-03-18T13:03:55.391Z,99.90
2018-03-18T13:06:23.939Z,99.90
2018-03-18T13:08:54.819Z,99.90
2018-03-18T13:11:22.698Z,99.90
2018-03-18T13:13:50.538Z,99.90
2018-03-18T13:16:19.181Z,99.90
2018-03-18T13:18:46.996Z,99.90
2018-03-18T13:21:15.590Z,99.90
2018-03-18T13:23:44.225Z,99.90
2018-03-18T13:26:12.076Z,99.90
2018-03-18T13:28:39.913Z,99.90
2018-03-18T13:31:08.483Z,99.90
2018-03-18T13:33:37.093Z,99.90
2018-03-18T13:36:05.108Z,99.90
2018-03-18T13:38:32.927Z,99.90
2018-03-18T13:41:00.739Z,99.90
2018-03-18T13:43:28.554Z,99.90
2018-03-18T13:45:56.373Z,99.90
2018-03-18T13:48:24.212Z,99.90
2018-03-18T13:50:52.276Z,99.90
2018-03-18T13:53:20.080Z,99.90
2018-03-18T13:55:48.002Z,99.90
2018-03-18T13:58:15.757Z,99.90
2018-03-18T14:00:44.334Z,99.90
2018-03-18T14:04:04.207Z,99.90
2018-03-18T14:06:48.015Z,99.90
2018-03-18T14:09:16.673Z,99.90
2018-03-18T14:11:44.522Z,99.90
2018-03-18T14:14:12.431Z,99.90
2018-03-18T14:16:40.342Z,99.90
2018-03-18T14:19:08.151Z,99.90
2018-03-18T14:21:36.114Z,99.90
2018-03-18T14:24:03.920Z,99.90
2018-03-18T14:26:32.487Z,99.90
2018-03-18T14:29:00.445Z,99.90
2018-03-18T14:31:29.027Z,99.90
2018-03-18T14:33:56.831Z,99.90
2018-03-18T14:36:25.409Z,99.90
2018-03-18T14:38:53.924Z,99.90
2018-03-18T14:41:22.614Z,99.90
2018-03-18T14:43:51.031Z,99.90
2018-03-18T14:46:18.836Z,99.90
2018-03-18T14:48:46.637Z,99.90
2018-03-18T14:51:14.420Z,99.90
2018-03-18T14:53:43.047Z,99.90
2018-03-18T14:56:10.848Z,99.90
2018-03-18T14:58:38.698Z,99.90
2018-03-18T15:01:06.503Z,99.90
2018-03-18T15:03:34.473Z,99.90
2018-03-18T15:06:03.399Z,99.90
2018-03-18T15:08:31.893Z,99.90
2018-03-18T15:10:59.849Z,99.90
2018-03-18T15:13:27.761Z,99.90
2018-03-18T15:15:55.700Z,99.90
2018-03-18T15:18:23.464Z,99.90
2018-03-18T15:20:51.346Z,99.90
2018-03-18T15:23:19.249Z,99.90
2018-03-18T15:25:47.032Z,99.90
2018-03-18T15:28:15.547Z,99.90
2018-03-18T15:30:43.318Z,99.90
2018-03-18T15:33:11.144Z,99.90
2018-03-18T15:35:39.761Z,99.90
2018-03-18T15:38:07.527Z,99.90
2018-03-18T15:40:35.858Z,99.90
2018-03-18T15:43:23.519Z,99.90
2018-03-18T16:24:58.445Z,99.70
2018-03-18T16:27:27.129Z,99.70
2018-03-18T16:36:52.007Z,98.50
2018-03-18T16:39:19.810Z,98.40
2018-03-18T16:41:48.662Z,98.10
2018-03-18T16:44:20.322Z,98.00
2018-03-18T16:46:49.202Z,98.00
2018-03-18T16:59:34.263Z,96.90
2018-03-18T17:02:02.834Z,96.80
2018-03-18T17:04:31.441Z,96.90
2018-03-18T17:06:59.279Z,96.60
2018-03-18T17:09:27.846Z,96.80
2018-03-18T17:11:55.671Z,96.80
2018-03-18T17:14:23.430Z,96.60
2018-03-18T17:16:51.258Z,96.60
2018-03-18T17:19:19.040Z,96.00
2018-03-18T17:21:47.602Z,96.20
2018-03-18T17:24:15.409Z,96.30
2018-03-18T17:26:43.174Z,96.40
2018-03-18T17:29:11.924Z,96.60
2018-03-18T17:31:40.570Z,95.40
2018-03-18T17:34:08.352Z,95.40
2018-03-18T17:36:36.119Z,95.50
2018-03-18T17:39:04.019Z,95.70
2018-03-18T17:41:32.547Z,95.70
2018-03-18T17:44:00.280Z,95.70
2018-03-18T17:46:39.833Z,95.90
2018-03-18T17:49:19.569Z,96.10
2018-03-18T17:51:59.077Z,96.20
2018-03-18T17:54:39.370Z,96.30
2018-03-18T17:57:07.127Z,96.30
2018-03-18T17:59:34.920Z,96.10
2018-03-18T18:02:02.659Z,95.70
2018-03-18T18:04:30.394Z,95.80
2018-03-18T18:06:58.891Z,94.40
2018-03-18T18:09:26.630Z,94.40
2018-03-18T18:11:55.166Z,84.30
2018-03-18T18:14:22.970Z,84.30
2018-03-18T18:16:50.670Z,85.20
2018-03-18T18:19:18.402Z,87.00
2018-03-18T18:21:46.934Z,76.20
2018-03-18T18:24:14.665Z,75.60
2018-03-18T18:26:43.150Z,71.00
2018-03-18T18:29:11.636Z,66.90
2018-03-18T18:31:39.378Z,66.90
2018-03-18T18:34:08.059Z,65.70
2018-03-18T18:36:36.563Z,70.30
2018-03-18T18:39:04.411Z,70.30
2018-03-18T18:41:32.970Z,71.70
2018-03-18T18:44:00.693Z,71.60
2018-03-18T18:46:28.496Z,67.20
2018-03-18T18:48:56.240Z,62.10
2018-03-18T18:51:24.111Z,63.50
2018-03-18T18:53:51.862Z,64.30
2018-03-18T18:56:19.585Z,60.90
2018-03-18T18:58:48.102Z,59.50
2018-03-18T19:01:15.820Z,59.60
2018-03-18T19:03:44.325Z,60.80
2018-03-18T19:06:13.187Z,60.80
2018-03-18T19:08:41.707Z,59.50
2018-03-18T19:11:10.216Z,59.50
2018-03-18T19:13:37.967Z,57.00
2018-03-18T19:16:05.746Z,61.50
2018-03-18T19:18:33.583Z,62.60
2018-03-18T19:21:01.345Z,58.20
2018-03-18T19:23:29.105Z,59.40
2018-03-18T19:25:56.862Z,59.20
2018-03-18T19:28:24.645Z,59.70
2018-03-18T19:30:52.473Z,59.30
2018-03-18T19:33:20.248Z,58.10
2018-03-18T19:35:48.061Z,56.90
2018-03-18T19:38:16.834Z,57.10
2018-03-18T19:40:44.684Z,56.00
2018-03-18T19:43:12.426Z,57.00
2018-03-18T19:45:40.948Z,58.30
2018-03-18T19:48:08.714Z,58.30
2018-03-18T19:50:36.478Z,57.60
2018-03-18T19:53:05.303Z,59.40
2018-03-18T19:55:33.060Z,61.60
2018-03-18T19:58:00.818Z,63.90
2018-03-18T20:00:28.739Z,64.40
2018-03-18T20:02:56.483Z,64.30
2018-03-18T20:05:25.081Z,65.00
2018-03-18T20:07:52.826Z,65.00
2018-03-18T20:10:21.362Z,61.50
2018-03-18T20:12:49.087Z,61.50
2018-03-18T20:15:16.888Z,60.80
2018-03-18T20:17:44.692Z,63.70
2018-03-18T20:20:13.190Z,66.00
2018-03-18T20:22:40.931Z,66.00
2018-03-18T20:25:09.426Z,66.20
2018-03-18T20:27:38.021Z,65.40
2018-03-18T20:30:05.960Z,65.40
2018-03-18T20:32:33.746Z,65.60
2018-03-18T20:35:01.519Z,66.90
2018-03-18T20:37:29.250Z,66.80
2018-03-18T20:39:57.017Z,66.90
2018-03-18T20:42:24.729Z,67.00
2018-03-18T20:44:52.454Z,65.30
2018-03-18T20:47:20.987Z,62.90
2018-03-18T20:49:48.702Z,62.90
2018-03-18T20:52:17.222Z,60.90
2018-03-18T20:54:44.955Z,60.90
2018-03-18T20:57:13.440Z,59.70
2018-03-18T20:59:41.154Z,59.80
2018-03-18T21:02:08.934Z,59.90
2018-03-18T21:04:36.647Z,60.60
2018-03-18T21:07:04.395Z,61.80
2018-03-18T21:09:32.128Z,62.60
2018-03-18T21:11:59.857Z,63.90
2018-03-18T21:14:27.607Z,64.60
2018-03-18T21:16:55.381Z,64.90
2018-03-18T21:19:23.133Z,65.50
2018-03-18T21:21:50.909Z,65.90
2018-03-18T21:24:18.664Z,65.80
2018-03-18T21:26:46.470Z,65.80
2018-03-18T21:29:14.420Z,65.90
2018-03-18T21:31:42.213Z,65.80
2018-03-18T21:34:10.718Z,64.30
2018-03-18T21:36:38.499Z,64.30
2018-03-18T21:39:06.244Z,63.70
2018-03-18T21:41:33.979Z,63.60
2018-03-18T21:44:01.738Z,63.10
2018-03-18T21:46:29.579Z,63.40
2018-03-18T21:48:57.310Z,63.40
2018-03-18T21:51:25.081Z,63.90
2018-03-18T21:53:52.810Z,64.30
2018-03-18T21:56:21.318Z,64.50
2018-03-18T21:58:49.082Z,64.50
2018-03-18T22:01:16.814Z,64.60
2018-03-18T22:03:45.334Z,62.50
2018-03-18T22:06:13.802Z,62.50
2018-03-18T22:08:41.538Z,61.60
2018-03-18T22:11:10.046Z,61.30
2018-03-18T22:13:37.776Z,61.30
2018-03-18T22:16:05.562Z,60.30
2018-03-18T22:18:34.098Z,58.40
2018-03-18T22:21:01.845Z,58.40
2018-03-18T22:23:29.630Z,56.90
2018-03-18T22:25:57.375Z,55.30
2018-03-18T22:28:25.149Z,55.40
2018-03-18T22:30:52.890Z,56.10
2018-03-18T22:33:21.501Z,53.60
2018-03-18T22:35:49.261Z,53.50
2018-03-18T22:38:17.123Z,50.80
2018-03-18T22:40:44.842Z,52.20
2018-03-18T22:43:12.614Z,53.20
2018-03-18T22:45:40.416Z,53.90
2018-03-18T22:48:08.142Z,53.80
2018-03-18T22:50:35.866Z,53.50
2018-03-18T22:53:03.610Z,53.80
2018-03-18T22:55:31.334Z,54.50
2018-03-18T22:57:59.051Z,51.10
2018-03-18T23:00:26.805Z,50.70
2018-03-18T23:02:54.539Z,52.00
2018-03-18T23:05:22.272Z,51.30
2018-03-18T23:07:50.757Z,52.50
2018-03-18T23:10:18.495Z,52.60
2018-03-18T23:12:46.235Z,53.30
2018-03-18T23:15:13.965Z,53.00
2018-03-18T23:17:41.817Z,52.70
2018-03-18T23:20:09.538Z,52.50
2018-03-18T23:22:37.281Z,52.30
2018-03-18T23:25:05.050Z,52.70
2018-03-18T23:27:32.788Z,53.00
2018-03-18T23:30:00.529Z,53.60
2018-03-18T23:32:28.262Z,54.00
2018-03-18T23:34:56.779Z,54.90
2018-03-18T23:37:24.506Z,54.20
2018-03-18T23:39:52.270Z,54.60
2018-03-18T23:42:20.096Z,55.10
2018-03-18T23:44:47.851Z,55.40
2018-03-18T23:47:15.578Z,55.30
2018-03-18T23:49:44.069Z,55.00
2018-03-18T23:52:12.558Z,54.60
2018-03-18T23:54:40.299Z,54.60
2018-03-18T23:57:08.802Z,55.10
2018-03-18T23:59:36.541Z,54.50
